createdAt,value
2023-05-21T00:01:32.330Z,63.50
2023-05-21T00:04:00.342Z,65.70
2023-05-21T00:06:28.045Z,65.20
2023-05-21T00:08:55.643Z,65.00
2023-05-21T00:11:24.095Z,64.60
2023-05-21T00:13:51.539Z,64.30
2023-05-21T00:16:22.476Z,65.10
2023-05-21T00:18:51.217Z,63.90
2023-05-21T00:21:23.031Z,64.80
2023-05-21T00:23:50.510Z,65.20
2023-05-21T00:26:17.974Z,65.80
2023-05-21T00:28:46.016Z,66.50
2023-05-21T00:31:13.582Z,66.10
2023-05-21T00:33:41.052Z,65.30
2023-05-21T00:36:08.983Z,66.40
2023-05-21T00:38:38.170Z,66.50
2023-05-21T00:41:05.689Z,65.30
2023-05-21T00:43:33.448Z,66.50
2023-05-21T00:46:01.114Z,67.90
2023-05-21T00:48:28.756Z,67.20
2023-05-21T00:50:56.686Z,66.50
2023-05-21T00:53:24.189Z,66.90
2023-05-21T00:55:51.740Z,66.60
2023-05-21T00:58:21.198Z,68.00
2023-05-21T01:00:48.725Z,64.90
2023-05-21T01:03:16.564Z,69.80
2023-05-21T01:05:46.842Z,66.20
2023-05-21T01:08:15.059Z,66.70
2023-05-21T01:10:42.719Z,66.40
2023-05-21T01:13:10.656Z,66.90
2023-05-21T01:15:39.077Z,67.50
2023-05-21T01:18:07.765Z,66.60
2023-05-21T01:20:35.454Z,66.90
2023-05-21T01:23:03.578Z,67.60
2023-05-21T01:25:31.140Z,66.00
2023-05-21T01:27:58.925Z,68.60
2023-05-21T01:30:27.646Z,67.70
2023-05-21T01:33:03.552Z,67.50
2023-05-21T01:35:37.661Z,68.20
2023-05-21T01:38:26.327Z,68.00
2023-05-21T01:41:05.785Z,67.70
2023-05-21T01:43:35.149Z,67.50
2023-05-21T01:46:03.314Z,66.90
2023-05-21T01:48:31.395Z,67.20
2023-05-21T01:51:02.779Z,67.60
2023-05-21T01:53:30.612Z,68.10
2023-05-21T01:55:59.359Z,69.80
2023-05-21T01:58:27.266Z,68.90
2023-05-21T02:00:54.753Z,68.90
2023-05-21T02:03:23.327Z,68.30
2023-05-21T02:05:52.122Z,67.00
2023-05-21T02:08:20.255Z,69.40
2023-05-21T02:10:48.422Z,67.70
2023-05-21T02:13:16.163Z,68.80
2023-05-21T02:15:44.922Z,68.40
2023-05-21T02:18:16.785Z,69.50
2023-05-21T02:20:45.368Z,68.30
2023-05-21T02:23:12.825Z,68.50
2023-05-21T02:25:40.288Z,68.60
2023-05-21T02:28:07.887Z,68.80
2023-05-21T02:30:36.025Z,68.60
2023-05-21T02:33:04.815Z,68.50
2023-05-21T02:35:34.018Z,69.10
2023-05-21T02:38:03.171Z,68.80
2023-05-21T02:40:33.839Z,68.40
2023-05-21T02:43:02.280Z,68.30
2023-05-21T02:45:32.197Z,70.00
2023-05-21T02:47:59.763Z,68.90
2023-05-21T02:50:27.320Z,69.70
2023-05-21T02:52:59.841Z,69.80
2023-05-21T02:55:27.693Z,71.00
2023-05-21T02:57:55.466Z,70.60
2023-05-21T03:00:23.029Z,69.80
2023-05-21T03:02:50.641Z,70.50
2023-05-21T03:05:18.146Z,69.60
2023-05-21T03:07:45.608Z,70.10
2023-05-21T03:10:14.719Z,69.90
2023-05-21T03:12:42.458Z,69.10
2023-05-21T03:15:10.952Z,69.90
2023-05-21T03:17:38.421Z,69.50
2023-05-21T03:20:06.660Z,70.20
2023-05-21T03:22:34.296Z,69.40
2023-05-21T03:25:03.010Z,69.60
2023-05-21T03:27:30.543Z,70.30
2023-05-21T03:30:00.118Z,69.90
2023-05-21T03:32:28.611Z,71.60
2023-05-21T03:34:56.265Z,74.00
2023-05-21T03:37:24.724Z,72.20
2023-05-21T03:39:52.485Z,72.30
2023-05-21T03:42:19.937Z,71.60
2023-05-21T03:44:51.975Z,71.40
2023-05-21T03:47:37.917Z,71.90
2023-05-21T03:50:09.481Z,73.10
2023-05-21T03:52:37.561Z,70.50
2023-05-21T03:55:06.844Z,72.80
2023-05-21T03:57:34.666Z,72.80
2023-05-21T04:00:02.643Z,72.20
2023-05-21T04:02:32.713Z,72.10
2023-05-21T04:05:00.332Z,69.80
2023-05-21T04:07:30.048Z,71.70
2023-05-21T04:09:59.081Z,70.70
2023-05-21T04:12:26.763Z,73.70
2023-05-21T04:14:54.343Z,74.10
2023-05-21T04:17:22.195Z,71.80
2023-05-21T04:19:51.324Z,72.20
2023-05-21T04:22:19.359Z,73.50
2023-05-21T04:24:46.924Z,72.40
2023-05-21T04:27:20.537Z,72.30
2023-05-21T04:29:50.642Z,72.50
2023-05-21T04:32:18.445Z,72.60
2023-05-21T04:34:45.954Z,72.10
2023-05-21T04:37:14.013Z,72.10
2023-05-21T04:39:41.863Z,73.60
2023-05-21T04:42:26.339Z,74.70
2023-05-21T04:44:59.396Z,72.60
2023-05-21T04:47:30.494Z,73.00
2023-05-21T04:49:59.467Z,73.00
2023-05-21T04:52:28.450Z,72.90
2023-05-21T04:54:55.956Z,73.50
2023-05-21T04:57:28.201Z,73.10
2023-05-21T04:59:58.061Z,73.10
2023-05-21T05:02:25.651Z,75.20
2023-05-21T05:04:53.539Z,74.00
2023-05-21T05:07:21.624Z,74.40
2023-05-21T05:09:50.718Z,75.30
2023-05-21T05:12:18.284Z,75.30
2023-05-21T05:14:46.050Z,75.20
2023-05-21T05:17:16.462Z,75.80
2023-05-21T05:19:44.452Z,74.10
2023-05-21T05:22:13.520Z,75.40
2023-05-21T05:24:42.578Z,74.70
2023-05-21T05:27:10.155Z,75.70
2023-05-21T05:29:38.174Z,73.70
2023-05-21T05:32:08.020Z,78.20
2023-05-21T05:34:38.084Z,75.20
2023-05-21T05:37:08.790Z,73.50
2023-05-21T05:39:36.187Z,74.70
2023-05-21T05:42:03.989Z,73.90
2023-05-21T05:44:31.603Z,73.90
2023-05-21T05:46:59.950Z,74.80
2023-05-21T05:49:28.693Z,73.90
2023-05-21T05:51:56.718Z,75.60
2023-05-21T05:54:24.539Z,73.40
2023-05-21T05:56:52.083Z,73.80
2023-05-21T05:59:19.576Z,74.20
2023-05-21T06:01:50.143Z,75.60
2023-05-21T06:04:17.761Z,75.00
2023-05-21T06:06:45.308Z,75.10
2023-05-21T06:09:12.818Z,75.40
2023-05-21T06:11:40.409Z,74.40
2023-05-21T06:14:07.912Z,74.20
2023-05-21T06:16:37.232Z,74.40
2023-05-21T06:19:05.056Z,74.30
2023-05-21T06:21:32.962Z,74.20
2023-05-21T06:24:00.436Z,74.00
2023-05-21T06:26:29.208Z,74.30
2023-05-21T06:28:57.592Z,74.10
2023-05-21T06:31:25.121Z,74.70
2023-05-21T06:33:52.798Z,74.10
2023-05-21T06:36:21.511Z,74.00
2023-05-21T06:38:48.966Z,73.30
2023-05-21T06:41:19.026Z,73.80
2023-05-21T06:43:56.775Z,73.50
2023-05-21T06:46:43.241Z,73.10
2023-05-21T06:49:14.505Z,73.50
2023-05-21T06:51:42.641Z,73.50
2023-05-21T06:54:11.804Z,72.80
2023-05-21T06:56:40.985Z,72.20
2023-05-21T06:59:08.965Z,72.80
2023-05-21T07:01:36.531Z,73.30
2023-05-21T07:04:04.244Z,72.20
2023-05-21T07:06:33.089Z,72.00
2023-05-21T07:09:01.161Z,72.10
2023-05-21T07:11:30.058Z,72.30
2023-05-21T07:14:00.904Z,72.10
2023-05-21T07:16:29.192Z,71.30
2023-05-21T07:18:57.581Z,71.90
2023-05-21T07:21:25.311Z,71.70
2023-05-21T07:23:56.967Z,71.80
2023-05-21T07:26:26.677Z,71.60
2023-05-21T07:28:54.208Z,72.60
2023-05-21T07:31:21.727Z,73.50
2023-05-21T07:33:52.390Z,72.40
2023-05-21T07:36:23.692Z,72.10
2023-05-21T07:38:51.494Z,72.40
2023-05-21T07:41:19.096Z,72.00
2023-05-21T07:43:47.827Z,71.70
2023-05-21T07:46:16.105Z,71.50
2023-05-21T07:48:44.138Z,71.30
2023-05-21T07:51:12.367Z,71.70
2023-05-21T07:53:39.972Z,71.00
2023-05-21T07:56:11.227Z,71.90
2023-05-21T07:58:39.555Z,71.00
2023-05-21T08:01:07.112Z,71.20
2023-05-21T08:03:34.844Z,71.50
2023-05-21T08:06:02.876Z,72.10
2023-05-21T08:08:30.944Z,71.20
2023-05-21T08:11:27.118Z,71.90
2023-05-21T08:14:01.558Z,71.70
2023-05-21T08:16:30.302Z,71.40
2023-05-21T08:19:00.327Z,70.30
2023-05-21T08:21:27.777Z,71.00
2023-05-21T08:24:07.438Z,71.00
2023-05-21T08:26:36.893Z,70.40
2023-05-21T08:29:14.074Z,71.30
2023-05-21T08:31:51.453Z,69.40
2023-05-21T08:34:19.781Z,69.80
2023-05-21T08:36:55.537Z,69.90
2023-05-21T08:39:54.527Z,71.00
2023-05-21T08:42:44.170Z,70.60
2023-05-21T08:45:28.872Z,69.40
2023-05-21T08:47:58.655Z,69.30
2023-05-21T08:50:39.103Z,69.80
2023-05-21T08:53:28.280Z,69.60
2023-05-21T08:55:57.668Z,69.40
2023-05-21T08:58:50.452Z,69.50
2023-05-21T09:01:36.486Z,68.60
2023-05-21T09:04:22.060Z,69.10
2023-05-21T09:06:55.158Z,69.10
2023-05-21T09:09:57.618Z,68.60
2023-05-21T09:12:27.715Z,68.10
2023-05-21T09:15:04.286Z,68.30
2023-05-21T09:17:35.159Z,68.90
2023-05-21T09:20:35.103Z,69.50
2023-05-21T09:23:05.003Z,67.90
2023-05-21T09:25:33.278Z,68.70
2023-05-21T09:28:12.324Z,69.20
2023-05-21T09:30:48.886Z,68.10
2023-05-21T09:33:27.437Z,67.10
2023-05-21T09:35:56.208Z,68.30
2023-05-21T09:38:27.976Z,68.30
2023-05-21T09:40:57.032Z,68.70
2023-05-21T09:43:25.558Z,68.10
2023-05-21T09:45:55.840Z,68.40
2023-05-21T09:48:36.577Z,67.40
2023-05-21T09:51:13.483Z,66.60
2023-05-21T09:53:53.193Z,66.70
2023-05-21T09:56:23.504Z,66.90
2023-05-21T09:59:04.216Z,67.50
2023-05-21T10:01:36.083Z,66.90
2023-05-21T10:04:08.224Z,67.00
2023-05-21T10:06:42.235Z,66.20
2023-05-21T10:09:17.930Z,65.50
2023-05-21T10:11:47.257Z,65.80
2023-05-21T10:14:22.431Z,64.70
2023-05-21T10:16:52.714Z,65.00
2023-05-21T10:19:20.850Z,65.30
2023-05-21T10:21:50.387Z,67.20
2023-05-21T10:24:19.051Z,66.00
2023-05-21T10:26:46.917Z,66.00
2023-05-21T10:29:18.815Z,64.40
2023-05-21T10:31:49.859Z,66.40
2023-05-21T10:34:19.448Z,64.80
2023-05-21T10:36:49.495Z,64.20
2023-05-21T10:39:18.050Z,65.20
2023-05-21T10:42:18.082Z,64.50
2023-05-21T10:44:54.633Z,64.00
2023-05-21T10:47:37.450Z,64.10
2023-05-21T10:50:26.701Z,62.60
2023-05-21T10:53:21.928Z,63.40
2023-05-21T10:56:19.811Z,63.00
2023-05-21T10:58:59.271Z,63.10
2023-05-21T11:01:36.635Z,62.50
2023-05-21T11:04:06.195Z,61.70
2023-05-21T11:06:34.036Z,62.20
2023-05-21T11:09:11.445Z,63.20
2023-05-21T11:11:46.505Z,62.90
2023-05-21T11:14:40.420Z,62.60
2023-05-21T11:17:14.723Z,62.60
2023-05-21T11:19:44.358Z,62.40
2023-05-21T11:22:27.985Z,62.20
2023-05-21T11:25:02.530Z,61.60
2023-05-21T11:27:41.374Z,62.50
2023-05-21T11:30:10.639Z,61.30
2023-05-21T11:33:04.238Z,62.30
2023-05-21T11:35:36.274Z,60.70
2023-05-21T11:38:03.712Z,61.00
2023-05-21T11:40:31.232Z,61.50
2023-05-21T11:42:58.766Z,61.50
2023-05-21T11:45:32.716Z,61.40
2023-05-21T11:48:00.660Z,60.80
2023-05-21T11:50:30.638Z,62.00
2023-05-21T11:53:00.597Z,62.00
2023-05-21T11:55:28.685Z,60.40
2023-05-21T11:57:56.469Z,61.70
2023-05-21T12:00:24.433Z,62.40
2023-05-21T12:02:53.466Z,61.30
2023-05-21T12:05:22.217Z,63.30
2023-05-21T12:07:50.641Z,62.50
2023-05-21T12:10:21.842Z,62.90
2023-05-21T12:12:55.537Z,61.00
2023-05-21T12:15:25.815Z,61.30
2023-05-21T12:17:54.393Z,61.10
2023-05-21T12:20:22.659Z,61.60
2023-05-21T12:22:50.482Z,61.20
2023-05-21T12:25:20.222Z,60.70
2023-05-21T12:27:49.801Z,60.60
2023-05-21T12:30:17.309Z,60.50
2023-05-21T12:32:44.987Z,61.20
2023-05-21T12:35:25.106Z,61.70
2023-05-21T12:37:53.077Z,60.50
2023-05-21T12:40:21.055Z,60.40
2023-05-21T12:42:49.468Z,60.60
2023-05-21T12:45:19.515Z,60.20
2023-05-21T12:47:56.511Z,60.90
2023-05-21T12:50:24.184Z,62.40
2023-05-21T12:52:54.974Z,61.70
2023-05-21T12:55:25.365Z,60.30
2023-05-21T12:58:03.773Z,60.20
2023-05-21T13:00:32.532Z,60.00
2023-05-21T13:03:01.831Z,61.30
2023-05-21T13:05:30.216Z,60.70
2023-05-21T13:07:57.729Z,60.80
2023-05-21T13:10:25.378Z,61.70
2023-05-21T13:12:52.884Z,62.60
2023-05-21T13:15:20.882Z,60.70
2023-05-21T13:17:50.125Z,62.10
2023-05-21T13:20:21.704Z,60.80
2023-05-21T13:22:51.856Z,61.10
2023-05-21T13:25:22.434Z,61.10
2023-05-21T13:27:51.675Z,60.30
2023-05-21T13:30:20.437Z,60.30
2023-05-21T13:32:48.567Z,60.30
2023-05-21T13:35:16.835Z,60.90
2023-05-21T13:37:47.281Z,60.20
2023-05-21T13:40:17.071Z,59.80
2023-05-21T13:42:49.008Z,60.10
2023-05-21T13:45:18.280Z,59.70
2023-05-21T13:47:47.734Z,60.20
2023-05-21T13:50:15.961Z,60.40
2023-05-21T13:52:43.565Z,60.10
2023-05-21T13:55:11.416Z,60.70
2023-05-21T13:57:40.639Z,61.90
2023-05-21T14:00:14.257Z,60.50
2023-05-21T14:02:43.520Z,60.20
2023-05-21T14:05:11.715Z,60.00
2023-05-21T14:07:40.069Z,61.30
2023-05-21T14:10:08.250Z,61.10
2023-05-21T14:12:35.802Z,60.90
2023-05-21T14:15:03.454Z,61.40
2023-05-21T14:17:32.933Z,61.60
2023-05-21T14:20:00.547Z,60.50
2023-05-21T14:22:28.392Z,61.20
2023-05-21T14:24:56.334Z,60.60
2023-05-21T14:27:23.897Z,60.90
2023-05-21T14:29:51.368Z,60.30
2023-05-21T14:32:19.701Z,60.20
2023-05-21T14:34:47.219Z,60.80
2023-05-21T14:37:17.108Z,60.90
2023-05-21T14:39:44.634Z,61.70
2023-05-21T14:42:12.074Z,60.60
2023-05-21T14:44:39.538Z,61.10
2023-05-21T14:47:07.105Z,60.00
2023-05-21T14:49:34.613Z,60.50
2023-05-21T14:52:03.908Z,60.60
2023-05-21T14:54:31.407Z,61.70
2023-05-21T14:56:59.357Z,60.30
2023-05-21T14:59:27.215Z,60.50
2023-05-21T15:01:54.919Z,61.60
2023-05-21T15:04:22.477Z,61.60
2023-05-21T15:06:50.546Z,61.00
2023-05-21T15:09:30.974Z,60.60
2023-05-21T15:11:58.842Z,60.60
2023-05-21T15:14:27.872Z,61.30
2023-05-21T15:16:55.454Z,60.50
2023-05-21T15:19:23.037Z,61.60
2023-05-21T15:21:51.794Z,61.40
2023-05-21T15:24:19.262Z,60.90
2023-05-21T15:26:46.711Z,60.70
2023-05-21T15:29:14.260Z,60.50
2023-05-21T15:31:41.721Z,61.10
2023-05-21T15:34:09.353Z,61.60
2023-05-21T15:36:36.956Z,61.10
2023-05-21T15:39:06.108Z,62.10
2023-05-21T15:41:38.628Z,61.50
2023-05-21T15:44:06.194Z,60.80
2023-05-21T15:46:33.846Z,62.00
2023-05-21T15:49:01.428Z,60.50
2023-05-21T15:51:28.922Z,61.30
2023-05-21T15:53:56.391Z,60.90
2023-05-21T15:56:23.888Z,61.00
2023-05-21T15:58:51.447Z,61.10
2023-05-21T16:01:19.035Z,61.00
2023-05-21T16:03:46.744Z,61.90
2023-05-21T16:06:14.386Z,61.70
2023-05-21T16:08:41.889Z,62.90
2023-05-21T16:11:09.450Z,62.30
2023-05-21T16:13:36.923Z,61.90
2023-05-21T16:16:05.935Z,61.80
2023-05-21T16:18:33.434Z,61.30
2023-05-21T16:21:01.240Z,61.10
2023-05-21T16:23:28.846Z,61.60
2023-05-21T16:25:56.926Z,61.40
2023-05-21T16:28:27.265Z,61.60
2023-05-21T16:30:54.968Z,62.10
2023-05-21T16:33:22.722Z,61.40
2023-05-21T16:35:50.609Z,63.80
2023-05-21T16:38:18.153Z,63.90
2023-05-21T16:40:45.808Z,62.80
2023-05-21T16:43:15.308Z,62.70
2023-05-21T16:45:44.680Z,61.50
2023-05-21T17:04:59.992Z,62.30
2023-05-21T17:07:27.468Z,63.00
2023-05-21T17:09:54.883Z,62.90
2023-05-21T17:12:24.842Z,64.20
2023-05-21T17:14:55.854Z,62.90
2023-05-21T17:17:23.551Z,63.20
2023-05-21T17:19:51.035Z,63.40
2023-05-21T17:22:24.445Z,63.10
2023-05-21T17:24:52.134Z,63.30
2023-05-21T17:27:19.800Z,63.80
2023-05-21T17:29:47.358Z,65.20
2023-05-21T17:32:14.890Z,63.90
2023-05-21T17:34:43.878Z,64.40
2023-05-21T17:37:12.016Z,64.50
2023-05-21T17:39:41.219Z,66.30
2023-05-21T17:42:08.815Z,64.40
2023-05-21T17:44:36.322Z,64.80
2023-05-21T17:47:03.984Z,65.80
2023-05-21T17:49:34.987Z,65.30
2023-05-21T17:52:04.671Z,64.80
2023-05-21T17:54:34.776Z,65.30
2023-05-21T17:57:02.762Z,64.90
2023-05-21T17:59:32.981Z,66.50
2023-05-21T18:02:04.024Z,66.20
2023-05-21T18:04:34.839Z,66.40
2023-05-21T18:07:09.897Z,67.70
2023-05-21T18:09:49.879Z,67.90
2023-05-21T18:12:27.176Z,66.10
2023-05-21T18:14:56.199Z,71.20
2023-05-21T18:17:23.693Z,69.90
2023-05-21T18:19:52.649Z,68.50
2023-05-21T18:22:20.399Z,70.10
2023-05-21T18:24:47.977Z,69.10
2023-05-21T18:27:16.017Z,69.20
2023-05-21T18:29:50.186Z,69.30
2023-05-21T18:32:20.473Z,72.70
2023-05-21T18:34:51.867Z,71.40
2023-05-21T18:37:21.178Z,73.20
2023-05-21T18:39:52.984Z,70.40
2023-05-21T18:42:20.834Z,68.40
2023-05-21T18:44:51.542Z,71.60
2023-05-21T18:47:21.593Z,69.40
2023-05-21T18:50:03.909Z,72.70
2023-05-21T18:52:36.465Z,70.30
2023-05-21T18:55:06.894Z,74.90
2023-05-21T18:57:36.538Z,72.60
2023-05-21T19:00:13.353Z,72.30
2023-05-21T19:03:40.342Z,70.70
2023-05-21T19:06:11.083Z,69.70
2023-05-21T19:08:42.745Z,71.60
2023-05-21T19:11:12.208Z,76.00
2023-05-21T19:13:40.124Z,74.30
2023-05-21T19:16:12.562Z,74.40
2023-05-21T19:18:43.410Z,73.20
2023-05-21T19:21:14.368Z,71.20
2023-05-21T19:23:52.009Z,70.10
2023-05-21T19:26:22.899Z,72.30
2023-05-21T19:31:57.445Z,73.30
2023-05-21T19:34:26.729Z,74.70
2023-05-21T19:37:22.075Z,73.20
2023-05-21T19:40:02.020Z,72.80
2023-05-21T19:42:52.335Z,72.40
2023-05-21T19:45:26.000Z,76.90
2023-05-21T19:48:12.174Z,78.50
2023-05-21T19:51:42.064Z,80.10
2023-05-21T19:54:37.233Z,73.10
2023-05-21T19:57:12.318Z,73.50
2023-05-21T19:59:54.454Z,74.20
2023-05-21T20:02:30.109Z,74.70
2023-05-21T20:05:01.490Z,73.80
2023-05-21T20:07:30.791Z,76.30
2023-05-21T20:09:58.332Z,76.10
2023-05-21T20:12:29.755Z,76.60
2023-05-21T20:15:02.690Z,76.00
2023-05-21T20:17:31.592Z,79.60
2023-05-21T20:20:05.911Z,79.10
2023-05-21T20:22:52.392Z,80.20
2023-05-21T20:25:22.633Z,79.50
2023-05-21T20:27:51.410Z,78.90
2023-05-21T20:30:20.492Z,78.30
2023-05-21T20:35:39.773Z,77.60
2023-05-21T20:38:07.553Z,78.60
2023-05-21T20:40:35.248Z,79.10
2023-05-21T20:43:02.759Z,80.00
2023-05-21T20:45:30.946Z,78.60
2023-05-21T20:47:58.586Z,78.30
2023-05-21T20:50:28.848Z,77.50
2023-05-21T20:52:58.111Z,78.30
2023-05-21T20:55:25.595Z,78.80
2023-05-21T20:57:53.222Z,79.10
2023-05-21T21:00:20.935Z,77.90
2023-05-21T21:02:49.727Z,78.50
2023-05-21T21:05:17.254Z,78.00
2023-05-21T21:07:45.755Z,80.50
2023-05-21T21:10:13.270Z,78.50
2023-05-21T21:12:43.569Z,78.20
2023-05-21T21:15:11.348Z,80.50
2023-05-21T21:17:38.951Z,80.50
2023-05-21T21:20:07.690Z,79.90
2023-05-21T21:22:35.278Z,79.30
2023-05-21T21:25:02.756Z,80.10
2023-05-21T21:27:30.407Z,79.00
2023-05-21T21:29:59.182Z,79.20
2023-05-21T21:32:26.963Z,78.70
2023-05-21T21:34:54.535Z,79.80
2023-05-21T21:37:22.032Z,79.30
2023-05-21T21:39:49.543Z,79.90
2023-05-21T21:42:17.100Z,79.40
2023-05-21T21:44:44.604Z,80.70
2023-05-21T21:47:12.126Z,80.80
2023-05-21T21:49:41.503Z,81.10
2023-05-21T21:52:10.818Z,81.40
2023-05-21T21:54:38.336Z,81.80
2023-05-21T21:57:06.319Z,80.50
2023-05-21T21:59:34.823Z,80.70
2023-05-21T22:02:02.475Z,82.30
2023-05-21T22:04:29.986Z,80.30
2023-05-21T22:06:57.603Z,81.40
2023-05-21T22:09:25.170Z,81.50
2023-05-21T22:11:53.480Z,81.90
2023-05-21T22:14:20.993Z,83.10
2023-05-21T22:16:48.728Z,81.30
2023-05-21T22:19:20.608Z,84.80
2023-05-21T22:21:48.375Z,82.10
2023-05-21T22:24:30.863Z,82.30
2023-05-21T22:26:58.825Z,83.70
2023-05-21T22:29:26.308Z,82.70
2023-05-21T22:31:53.868Z,82.00
2023-05-21T22:34:22.341Z,83.70
2023-05-21T22:36:49.814Z,83.40
2023-05-21T22:39:18.011Z,82.50
2023-05-21T22:41:45.852Z,82.30
2023-05-21T22:44:13.304Z,82.50
2023-05-21T22:46:42.194Z,83.60
2023-05-21T22:49:10.365Z,83.30
2023-05-21T22:51:37.891Z,82.70
2023-05-21T22:54:05.599Z,82.90
2023-05-21T22:56:33.352Z,83.90
2023-05-21T22:59:00.898Z,83.40
2023-05-21T23:01:29.941Z,83.40
2023-05-21T23:03:57.681Z,84.00
2023-05-21T23:06:28.548Z,83.60
2023-05-21T23:09:29.635Z,84.00
2023-05-21T23:11:59.264Z,82.40
2023-05-21T23:14:26.938Z,82.90
2023-05-21T23:16:54.902Z,83.30
2023-05-21T23:19:22.621Z,82.80
2023-05-21T23:21:50.336Z,85.10
2023-05-21T23:24:17.874Z,84.50
2023-05-21T23:26:45.451Z,84.50
2023-05-21T23:29:12.903Z,83.60
2023-05-21T23:31:40.549Z,84.20
2023-05-21T23:34:08.229Z,84.20
2023-05-21T23:36:36.075Z,85.80
2023-05-21T23:39:03.786Z,85.20
2023-05-21T23:41:31.345Z,85.60
2023-05-21T23:43:58.878Z,85.50
2023-05-21T23:46:26.420Z,84.90
2023-05-21T23:48:53.925Z,86.70
2023-05-21T23:51:21.581Z,85.20
2023-05-21T23:53:49.058Z,86.10
2023-05-21T23:56:16.597Z,86.60
2023-05-21T23:58:45.445Z,84.90
